sensor_id;sensor_type;location;lat;lon;timestamp;P1;durP1;ratioP1;P2;durP2;ratioP2
70731;SDS011;58316;48.164;11.538;2022-08-19T00:00:18;7.07;;;2.60;;
70731;SDS011;58316;48.164;11.538;2022-08-19T00:02:44;6.38;;;2.67;;
70731;SDS011;58316;48.164;11.538;2022-08-19T00:05:14;7.57;;;2.80;;
70731;SDS011;58316;48.164;11.538;2022-08-19T00:07:40;9.53;;;3.30;;
70731;SDS011;58316;48.164;11.538;2022-08-19T00:10:08;7.45;;;3.08;;
70731;SDS011;58316;48.164;11.538;2022-08-19T00:12:34;8.00;;;3.28;;
70731;SDS011;58316;48.164;11.538;2022-08-19T00:15:01;7.55;;;3.58;;
70731;SDS011;58316;48.164;11.538;2022-08-19T00:17:27;8.50;;;3.50;;
70731;SDS011;58316;48.164;11.538;2022-08-19T00:19:53;8.50;;;3.63;;
70731;SDS011;58316;48.164;11.538;2022-08-19T00:22:19;8.23;;;3.40;;
70731;SDS011;58316;48.164;11.538;2022-08-19T00:24:45;8.13;;;3.88;;
70731;SDS011;58316;48.164;11.538;2022-08-19T00:27:12;8.45;;;3.95;;
70731;SDS011;58316;48.164;11.538;2022-08-19T00:29:38;8.95;;;4.47;;
70731;SDS011;58316;48.164;11.538;2022-08-19T00:32:04;9.17;;;4.27;;
70731;SDS011;58316;48.164;11.538;2022-08-19T00:34:30;8.75;;;4.43;;
70731;SDS011;58316;48.164;11.538;2022-08-19T00:36:56;10.02;;;4.97;;
70731;SDS011;58316;48.164;11.538;2022-08-19T00:39:22;10.02;;;5.30;;
70731;SDS011;58316;48.164;11.538;2022-08-19T00:41:49;10.75;;;5.00;;
70731;SDS011;58316;48.164;11.538;2022-08-19T00:44:17;10.47;;;5.10;;
70731;SDS011;58316;48.164;11.538;2022-08-19T00:46:45;11.20;;;5.05;;
70731;SDS011;58316;48.164;11.538;2022-08-19T00:49:13;10.32;;;4.80;;
70731;SDS011;58316;48.164;11.538;2022-08-19T00:51:40;10.23;;;5.47;;
70731;SDS011;58316;48.164;11.538;2022-08-19T00:54:07;9.63;;;5.10;;
70731;SDS011;58316;48.164;11.538;2022-08-19T00:56:34;10.57;;;5.43;;
70731;SDS011;58316;48.164;11.538;2022-08-19T00:59:00;10.73;;;4.90;;
70731;SDS011;58316;48.164;11.538;2022-08-19T01:01:27;9.40;;;5.03;;
70731;SDS011;58316;48.164;11.538;2022-08-19T01:03:53;11.13;;;4.80;;
70731;SDS011;58316;48.164;11.538;2022-08-19T01:06:19;10.10;;;5.10;;
70731;SDS011;58316;48.164;11.538;2022-08-19T01:08:45;11.17;;;5.43;;
70731;SDS011;58316;48.164;11.538;2022-08-19T01:11:11;12.18;;;5.60;;
70731;SDS011;58316;48.164;11.538;2022-08-19T01:13:38;10.65;;;5.32;;
70731;SDS011;58316;48.164;11.538;2022-08-19T01:16:05;11.32;;;5.82;;
70731;SDS011;58316;48.164;11.538;2022-08-19T01:18:32;10.40;;;5.82;;
70731;SDS011;58316;48.164;11.538;2022-08-19T01:21:02;11.87;;;5.87;;
70731;SDS011;58316;48.164;11.538;2022-08-19T01:23:31;11.30;;;6.35;;
70731;SDS011;58316;48.164;11.538;2022-08-19T01:26:16;12.68;;;6.22;;
70731;SDS011;58316;48.164;11.538;2022-08-19T01:28:43;14.13;;;7.00;;
70731;SDS011;58316;48.164;11.538;2022-08-19T01:31:12;12.07;;;6.60;;
70731;SDS011;58316;48.164;11.538;2022-08-19T01:33:38;12.23;;;7.10;;
70731;SDS011;58316;48.164;11.538;2022-08-19T01:36:08;13.25;;;7.20;;
70731;SDS011;58316;48.164;11.538;2022-08-19T01:38:36;13.10;;;6.85;;
70731;SDS011;58316;48.164;11.538;2022-08-19T01:41:03;13.98;;;7.70;;
70731;SDS011;58316;48.164;11.538;2022-08-19T01:43:29;14.38;;;7.43;;
70731;SDS011;58316;48.164;11.538;2022-08-19T01:45:55;13.50;;;7.23;;
70731;SDS011;58316;48.164;11.538;2022-08-19T01:48:21;13.15;;;7.00;;
70731;SDS011;58316;48.164;11.538;2022-08-19T01:50:47;13.55;;;7.32;;
70731;SDS011;58316;48.164;11.538;2022-08-19T01:53:13;13.43;;;7.50;;
70731;SDS011;58316;48.164;11.538;2022-08-19T01:55:40;11.85;;;6.57;;
70731;SDS011;58316;48.164;11.538;2022-08-19T01:58:15;13.50;;;7.10;;
70731;SDS011;58316;48.164;11.538;2022-08-19T02:00:43;12.40;;;6.53;;
70731;SDS011;58316;48.164;11.538;2022-08-19T02:03:10;12.75;;;6.63;;
70731;SDS011;58316;48.164;11.538;2022-08-19T02:05:37;12.38;;;6.97;;
70731;SDS011;58316;48.164;11.538;2022-08-19T02:08:03;13.15;;;7.10;;
70731;SDS011;58316;48.164;11.538;2022-08-19T02:10:29;11.13;;;6.20;;
70731;SDS011;58316;48.164;11.538;2022-08-19T02:12:56;12.27;;;6.65;;
70731;SDS011;58316;48.164;11.538;2022-08-19T02:15:22;12.15;;;5.93;;
70731;SDS011;58316;48.164;11.538;2022-08-19T02:17:50;12.15;;;6.13;;
70731;SDS011;58316;48.164;11.538;2022-08-19T02:20:16;11.60;;;6.07;;
70731;SDS011;58316;48.164;11.538;2022-08-19T02:22:42;11.50;;;5.97;;
70731;SDS011;58316;48.164;11.538;2022-08-19T02:25:09;12.43;;;5.45;;
70731;SDS011;58316;48.164;11.538;2022-08-19T02:27:35;11.15;;;5.65;;
70731;SDS011;58316;48.164;11.538;2022-08-19T02:30:03;10.88;;;5.40;;
70731;SDS011;58316;48.164;11.538;2022-08-19T02:32:29;10.10;;;5.45;;
70731;SDS011;58316;48.164;11.538;2022-08-19T02:34:56;9.83;;;5.10;;
70731;SDS011;58316;48.164;11.538;2022-08-19T02:37:22;10.45;;;5.20;;
70731;SDS011;58316;48.164;11.538;2022-08-19T02:40:07;9.48;;;4.55;;
70731;SDS011;58316;48.164;11.538;2022-08-19T02:42:33;11.00;;;5.45;;
70731;SDS011;58316;48.164;11.538;2022-08-19T02:44:59;12.70;;;5.63;;
70731;SDS011;58316;48.164;11.538;2022-08-19T02:47:25;11.40;;;5.23;;
70731;SDS011;58316;48.164;11.538;2022-08-19T02:49:51;10.25;;;5.30;;
70731;SDS011;58316;48.164;11.538;2022-08-19T02:52:17;10.68;;;5.28;;
70731;SDS011;58316;48.164;11.538;2022-08-19T02:54:43;8.88;;;4.60;;
70731;SDS011;58316;48.164;11.538;2022-08-19T02:57:09;10.55;;;5.55;;
70731;SDS011;58316;48.164;11.538;2022-08-19T02:59:35;11.53;;;5.37;;
70731;SDS011;58316;48.164;11.538;2022-08-19T03:02:01;10.25;;;4.47;;
70731;SDS011;58316;48.164;11.538;2022-08-19T03:04:27;10.25;;;5.28;;
70731;SDS011;58316;48.164;11.538;2022-08-19T03:06:54;11.05;;;5.10;;
70731;SDS011;58316;48.164;11.538;2022-08-19T03:09:20;10.63;;;5.50;;
70731;SDS011;58316;48.164;11.538;2022-08-19T03:11:46;95.27;;;48.07;;
70731;SDS011;58316;48.164;11.538;2022-08-19T03:14:12;11.85;;;5.57;;
70731;SDS011;58316;48.164;11.538;2022-08-19T03:16:44;11.60;;;5.65;;
70731;SDS011;58316;48.164;11.538;2022-08-19T03:19:11;9.25;;;4.38;;
70731;SDS011;58316;48.164;11.538;2022-08-19T03:21:37;9.30;;;4.80;;
70731;SDS011;58316;48.164;11.538;2022-08-19T03:24:05;10.57;;;5.40;;
70731;SDS011;58316;48.164;11.538;2022-08-19T03:26:32;10.68;;;5.10;;
70731;SDS011;58316;48.164;11.538;2022-08-19T03:29:01;9.63;;;4.85;;
70731;SDS011;58316;48.164;11.538;2022-08-19T03:31:27;10.00;;;4.53;;
70731;SDS011;58316;48.164;11.538;2022-08-19T03:33:53;9.73;;;4.55;;
70731;SDS011;58316;48.164;11.538;2022-08-19T03:36:21;8.67;;;4.23;;
70731;SDS011;58316;48.164;11.538;2022-08-19T03:38:51;11.18;;;5.00;;
70731;SDS011;58316;48.164;11.538;2022-08-19T03:41:20;10.52;;;4.63;;
70731;SDS011;58316;48.164;11.538;2022-08-19T03:43:46;9.05;;;4.72;;
70731;SDS011;58316;48.164;11.538;2022-08-19T03:46:17;10.65;;;5.25;;
70731;SDS011;58316;48.164;11.538;2022-08-19T03:48:45;10.03;;;5.07;;
70731;SDS011;58316;48.164;11.538;2022-08-19T03:51:19;9.90;;;5.07;;
70731;SDS011;58316;48.164;11.538;2022-08-19T03:53:46;10.82;;;5.32;;
70731;SDS011;58316;48.164;11.538;2022-08-19T03:56:13;10.05;;;5.22;;
70731;SDS011;58316;48.164;11.538;2022-08-19T03:58:40;12.13;;;5.47;;
70731;SDS011;58316;48.164;11.538;2022-08-19T04:01:10;10.90;;;5.30;;
70731;SDS011;58316;48.164;11.538;2022-08-19T04:03:37;11.30;;;5.43;;
70731;SDS011;58316;48.164;11.538;2022-08-19T04:08:46;10.90;;;5.38;;
70731;SDS011;58316;48.164;11.538;2022-08-19T04:11:13;12.68;;;5.50;;
70731;SDS011;58316;48.164;11.538;2022-08-19T04:13:40;12.43;;;5.50;;
70731;SDS011;58316;48.164;11.538;2022-08-19T04:16:07;11.85;;;6.05;;
70731;SDS011;58316;48.164;11.538;2022-08-19T04:18:34;11.00;;;5.70;;
70731;SDS011;58316;48.164;11.538;2022-08-19T04:21:01;12.00;;;6.45;;
70731;SDS011;58316;48.164;11.538;2022-08-19T04:23:27;13.52;;;6.55;;
70731;SDS011;58316;48.164;11.538;2022-08-19T04:25:53;12.00;;;6.20;;
70731;SDS011;58316;48.164;11.538;2022-08-19T04:28:20;11.75;;;5.53;;
70731;SDS011;58316;48.164;11.538;2022-08-19T04:30:47;11.90;;;5.50;;
70731;SDS011;58316;48.164;11.538;2022-08-19T04:33:14;12.30;;;6.45;;
70731;SDS011;58316;48.164;11.538;2022-08-19T04:35:41;11.25;;;5.70;;
70731;SDS011;58316;48.164;11.538;2022-08-19T04:38:07;10.60;;;5.37;;
70731;SDS011;58316;48.164;11.538;2022-08-19T04:40:34;12.57;;;6.40;;
70731;SDS011;58316;48.164;11.538;2022-08-19T04:43:25;11.82;;;6.05;;
70731;SDS011;58316;48.164;11.538;2022-08-19T04:45:51;11.70;;;6.18;;
70731;SDS011;58316;48.164;11.538;2022-08-19T04:48:17;14.10;;;7.00;;
70731;SDS011;58316;48.164;11.538;2022-08-19T04:50:54;13.90;;;7.00;;
70731;SDS011;58316;48.164;11.538;2022-08-19T04:53:24;15.75;;;6.72;;
70731;SDS011;58316;48.164;11.538;2022-08-19T04:55:51;11.77;;;6.13;;
70731;SDS011;58316;48.164;11.538;2022-08-19T04:58:18;11.68;;;5.70;;
70731;SDS011;58316;48.164;11.538;2022-08-19T05:00:44;13.05;;;6.65;;
70731;SDS011;58316;48.164;11.538;2022-08-19T05:03:10;11.67;;;6.23;;
70731;SDS011;58316;48.164;11.538;2022-08-19T05:05:40;12.63;;;5.97;;
70731;SDS011;58316;48.164;11.538;2022-08-19T05:08:06;11.75;;;6.47;;
70731;SDS011;58316;48.164;11.538;2022-08-19T05:10:34;12.48;;;7.15;;
70731;SDS011;58316;48.164;11.538;2022-08-19T05:13:01;12.00;;;5.80;;
70731;SDS011;58316;48.164;11.538;2022-08-19T05:15:27;13.03;;;6.50;;
70731;SDS011;58316;48.164;11.538;2022-08-19T05:17:53;11.82;;;5.80;;
70731;SDS011;58316;48.164;11.538;2022-08-19T05:20:38;12.15;;;5.78;;
70731;SDS011;58316;48.164;11.538;2022-08-19T05:23:22;11.60;;;6.72;;
70731;SDS011;58316;48.164;11.538;2022-08-19T05:25:49;12.60;;;6.38;;
70731;SDS011;58316;48.164;11.538;2022-08-19T05:28:15;11.77;;;6.13;;
70731;SDS011;58316;48.164;11.538;2022-08-19T05:30:41;12.90;;;6.93;;
70731;SDS011;58316;48.164;11.538;2022-08-19T05:33:10;12.55;;;6.25;;
70731;SDS011;58316;48.164;11.538;2022-08-19T05:35:37;14.00;;;6.78;;
70731;SDS011;58316;48.164;11.538;2022-08-19T05:38:04;13.25;;;6.60;;
70731;SDS011;58316;48.164;11.538;2022-08-19T05:40:33;11.83;;;5.80;;
70731;SDS011;58316;48.164;11.538;2022-08-19T05:43:00;11.55;;;6.13;;
70731;SDS011;58316;48.164;11.538;2022-08-19T05:45:26;11.07;;;6.80;;
70731;SDS011;58316;48.164;11.538;2022-08-19T05:47:53;12.32;;;6.68;;
70731;SDS011;58316;48.164;11.538;2022-08-19T05:50:19;12.57;;;7.20;;
70731;SDS011;58316;48.164;11.538;2022-08-19T05:52:45;12.77;;;6.60;;
70731;SDS011;58316;48.164;11.538;2022-08-19T05:55:11;14.48;;;7.78;;
70731;SDS011;58316;48.164;11.538;2022-08-19T05:57:37;15.07;;;7.22;;
70731;SDS011;58316;48.164;11.538;2022-08-19T06:00:04;13.25;;;7.10;;
70731;SDS011;58316;48.164;11.538;2022-08-19T06:02:34;14.32;;;7.38;;
70731;SDS011;58316;48.164;11.538;2022-08-19T06:05:01;15.07;;;8.17;;
70731;SDS011;58316;48.164;11.538;2022-08-19T06:07:28;15.20;;;7.80;;
70731;SDS011;58316;48.164;11.538;2022-08-19T06:09:54;13.60;;;7.13;;
70731;SDS011;58316;48.164;11.538;2022-08-19T06:12:20;12.45;;;7.07;;
70731;SDS011;58316;48.164;11.538;2022-08-19T06:14:49;13.15;;;7.05;;
70731;SDS011;58316;48.164;11.538;2022-08-19T06:17:15;13.70;;;7.50;;
70731;SDS011;58316;48.164;11.538;2022-08-19T06:19:41;13.48;;;7.03;;
70731;SDS011;58316;48.164;11.538;2022-08-19T06:22:08;12.80;;;7.30;;
70731;SDS011;58316;48.164;11.538;2022-08-19T06:24:37;13.45;;;7.93;;
70731;SDS011;58316;48.164;11.538;2022-08-19T06:27:03;16.75;;;8.25;;
70731;SDS011;58316;48.164;11.538;2022-08-19T06:29:30;15.70;;;9.13;;
70731;SDS011;58316;48.164;11.538;2022-08-19T06:31:57;15.40;;;8.00;;
70731;SDS011;58316;48.164;11.538;2022-08-19T06:34:24;15.65;;;7.95;;
70731;SDS011;58316;48.164;11.538;2022-08-19T06:36:52;15.68;;;8.48;;
70731;SDS011;58316;48.164;11.538;2022-08-19T06:39:22;16.35;;;8.65;;
70731;SDS011;58316;48.164;11.538;2022-08-19T06:41:49;15.20;;;8.77;;
70731;SDS011;58316;48.164;11.538;2022-08-19T06:44:16;15.77;;;9.02;;
70731;SDS011;58316;48.164;11.538;2022-08-19T06:46:42;15.63;;;9.23;;
70731;SDS011;58316;48.164;11.538;2022-08-19T06:49:08;17.77;;;9.88;;
70731;SDS011;58316;48.164;11.538;2022-08-19T06:51:38;16.70;;;9.20;;
70731;SDS011;58316;48.164;11.538;2022-08-19T06:54:04;16.50;;;8.73;;
70731;SDS011;58316;48.164;11.538;2022-08-19T06:56:30;16.00;;;9.10;;
70731;SDS011;58316;48.164;11.538;2022-08-19T06:59:10;15.32;;;8.85;;
70731;SDS011;58316;48.164;11.538;2022-08-19T07:01:40;16.45;;;8.68;;
70731;SDS011;58316;48.164;11.538;2022-08-19T07:04:07;16.60;;;9.38;;
70731;SDS011;58316;48.164;11.538;2022-08-19T07:06:34;17.07;;;9.63;;
70731;SDS011;58316;48.164;11.538;2022-08-19T07:09:00;19.50;;;10.40;;
70731;SDS011;58316;48.164;11.538;2022-08-19T07:11:26;18.05;;;10.88;;
70731;SDS011;58316;48.164;11.538;2022-08-19T07:13:53;20.77;;;10.88;;
70731;SDS011;58316;48.164;11.538;2022-08-19T07:16:20;20.98;;;11.15;;
70731;SDS011;58316;48.164;11.538;2022-08-19T07:18:47;20.03;;;10.87;;
70731;SDS011;58316;48.164;11.538;2022-08-19T07:21:18;23.90;;;12.40;;
70731;SDS011;58316;48.164;11.538;2022-08-19T07:23:44;19.58;;;11.15;;
70731;SDS011;58316;48.164;11.538;2022-08-19T07:26:15;22.67;;;12.18;;
70731;SDS011;58316;48.164;11.538;2022-08-19T07:28:42;25.85;;;13.90;;
70731;SDS011;58316;48.164;11.538;2022-08-19T07:31:13;25.13;;;13.27;;
70731;SDS011;58316;48.164;11.538;2022-08-19T07:33:39;21.25;;;13.05;;
70731;SDS011;58316;48.164;11.538;2022-08-19T07:36:08;25.92;;;15.00;;
70731;SDS011;58316;48.164;11.538;2022-08-19T07:38:38;22.70;;;13.23;;
70731;SDS011;58316;48.164;11.538;2022-08-19T07:41:06;27.27;;;15.60;;
70731;SDS011;58316;48.164;11.538;2022-08-19T07:43:32;27.00;;;15.17;;
70731;SDS011;58316;48.164;11.538;2022-08-19T07:45:58;26.27;;;14.85;;
70731;SDS011;58316;48.164;11.538;2022-08-19T07:48:25;27.88;;;16.13;;
70731;SDS011;58316;48.164;11.538;2022-08-19T07:50:55;25.50;;;15.20;;
70731;SDS011;58316;48.164;11.538;2022-08-19T07:53:22;26.95;;;15.65;;
70731;SDS011;58316;48.164;11.538;2022-08-19T07:55:48;27.17;;;16.13;;
70731;SDS011;58316;48.164;11.538;2022-08-19T07:58:16;27.80;;;15.40;;
70731;SDS011;58316;48.164;11.538;2022-08-19T08:00:43;27.90;;;15.32;;
70731;SDS011;58316;48.164;11.538;2022-08-19T08:03:10;27.27;;;15.27;;
70731;SDS011;58316;48.164;11.538;2022-08-19T08:05:36;26.27;;;14.68;;
70731;SDS011;58316;48.164;11.538;2022-08-19T08:08:20;27.23;;;14.80;;
70731;SDS011;58316;48.164;11.538;2022-08-19T08:11:02;28.15;;;16.05;;
70731;SDS011;58316;48.164;11.538;2022-08-19T08:13:28;25.08;;;14.07;;
70731;SDS011;58316;48.164;11.538;2022-08-19T08:15:54;26.35;;;14.63;;
70731;SDS011;58316;48.164;11.538;2022-08-19T08:18:20;25.67;;;14.93;;
70731;SDS011;58316;48.164;11.538;2022-08-19T08:20:46;26.80;;;15.57;;
70731;SDS011;58316;48.164;11.538;2022-08-19T08:23:12;26.30;;;15.05;;
70731;SDS011;58316;48.164;11.538;2022-08-19T08:25:47;27.70;;;14.90;;
70731;SDS011;58316;48.164;11.538;2022-08-19T08:28:14;27.98;;;15.57;;
70731;SDS011;58316;48.164;11.538;2022-08-19T08:30:40;30.48;;;16.52;;
70731;SDS011;58316;48.164;11.538;2022-08-19T08:33:11;28.67;;;15.90;;
70731;SDS011;58316;48.164;11.538;2022-08-19T08:35:38;30.08;;;17.13;;
70731;SDS011;58316;48.164;11.538;2022-08-19T08:38:06;29.60;;;17.15;;
70731;SDS011;58316;48.164;11.538;2022-08-19T08:40:37;27.45;;;15.45;;
70731;SDS011;58316;48.164;11.538;2022-08-19T08:43:11;30.10;;;16.67;;
70731;SDS011;58316;48.164;11.538;2022-08-19T08:45:43;26.80;;;16.07;;
70731;SDS011;58316;48.164;11.538;2022-08-19T08:48:16;28.42;;;16.33;;
70731;SDS011;58316;48.164;11.538;2022-08-19T08:50:43;29.88;;;16.08;;
70731;SDS011;58316;48.164;11.538;2022-08-19T08:53:11;29.77;;;16.70;;
70731;SDS011;58316;48.164;11.538;2022-08-19T08:55:39;29.08;;;16.83;;
70731;SDS011;58316;48.164;11.538;2022-08-19T08:58:09;29.33;;;16.70;;
70731;SDS011;58316;48.164;11.538;2022-08-19T09:00:39;33.15;;;18.38;;
70731;SDS011;58316;48.164;11.538;2022-08-19T09:03:09;34.75;;;18.90;;
70731;SDS011;58316;48.164;11.538;2022-08-19T09:05:48;32.60;;;17.70;;
70731;SDS011;58316;48.164;11.538;2022-08-19T09:08:22;32.75;;;18.60;;
70731;SDS011;58316;48.164;11.538;2022-08-19T09:10:51;34.50;;;18.37;;
70731;SDS011;58316;48.164;11.538;2022-08-19T09:15:48;34.92;;;18.70;;
70731;SDS011;58316;48.164;11.538;2022-08-19T09:18:16;34.20;;;18.38;;
70731;SDS011;58316;48.164;11.538;2022-08-19T09:20:43;36.63;;;18.63;;
70731;SDS011;58316;48.164;11.538;2022-08-19T09:23:09;33.67;;;18.93;;
70731;SDS011;58316;48.164;11.538;2022-08-19T09:25:36;37.38;;;18.80;;
70731;SDS011;58316;48.164;11.538;2022-08-19T09:28:03;33.63;;;18.42;;
70731;SDS011;58316;48.164;11.538;2022-08-19T09:30:31;39.58;;;18.80;;
70731;SDS011;58316;48.164;11.538;2022-08-19T09:32:58;36.92;;;18.80;;
70731;SDS011;58316;48.164;11.538;2022-08-19T09:35:26;39.30;;;19.03;;
70731;SDS011;58316;48.164;11.538;2022-08-19T09:37:53;32.78;;;17.08;;
70731;SDS011;58316;48.164;11.538;2022-08-19T09:40:20;31.02;;;16.70;;
70731;SDS011;58316;48.164;11.538;2022-08-19T09:42:46;31.33;;;17.27;;
70731;SDS011;58316;48.164;11.538;2022-08-19T09:45:13;32.00;;;16.40;;
70731;SDS011;58316;48.164;11.538;2022-08-19T09:47:39;30.10;;;16.03;;
70731;SDS011;58316;48.164;11.538;2022-08-19T09:50:06;27.33;;;15.15;;
70731;SDS011;58316;48.164;11.538;2022-08-19T09:52:32;29.60;;;15.88;;
70731;SDS011;58316;48.164;11.538;2022-08-19T09:55:05;27.98;;;15.13;;
70731;SDS011;58316;48.164;11.538;2022-08-19T09:57:31;30.15;;;16.17;;
70731;SDS011;58316;48.164;11.538;2022-08-19T09:59:57;24.67;;;14.07;;
70731;SDS011;58316;48.164;11.538;2022-08-19T10:02:23;28.73;;;14.38;;
70731;SDS011;58316;48.164;11.538;2022-08-19T10:04:50;28.95;;;15.73;;
70731;SDS011;58316;48.164;11.538;2022-08-19T10:07:35;27.00;;;15.48;;
70731;SDS011;58316;48.164;11.538;2022-08-19T10:10:01;27.48;;;14.40;;
70731;SDS011;58316;48.164;11.538;2022-08-19T10:12:27;26.03;;;13.90;;
70731;SDS011;58316;48.164;11.538;2022-08-19T10:14:53;27.40;;;15.00;;
70731;SDS011;58316;48.164;11.538;2022-08-19T10:17:20;26.70;;;13.40;;
70731;SDS011;58316;48.164;11.538;2022-08-19T10:19:46;23.27;;;12.68;;
70731;SDS011;58316;48.164;11.538;2022-08-19T10:22:12;23.25;;;12.27;;
70731;SDS011;58316;48.164;11.538;2022-08-19T10:24:40;22.93;;;12.83;;
70731;SDS011;58316;48.164;11.538;2022-08-19T10:27:06;24.13;;;12.75;;
70731;SDS011;58316;48.164;11.538;2022-08-19T10:29:32;25.15;;;13.43;;
70731;SDS011;58316;48.164;11.538;2022-08-19T10:32:03;24.52;;;13.45;;
70731;SDS011;58316;48.164;11.538;2022-08-19T10:34:30;25.25;;;13.20;;
70731;SDS011;58316;48.164;11.538;2022-08-19T10:36:57;24.17;;;13.60;;
70731;SDS011;58316;48.164;11.538;2022-08-19T10:39:24;22.75;;;11.88;;
70731;SDS011;58316;48.164;11.538;2022-08-19T10:41:50;22.17;;;11.93;;
70731;SDS011;58316;48.164;11.538;2022-08-19T10:44:16;23.27;;;11.85;;
70731;SDS011;58316;48.164;11.538;2022-08-19T10:46:43;19.13;;;10.27;;
70731;SDS011;58316;48.164;11.538;2022-08-19T10:49:10;23.33;;;12.60;;
70731;SDS011;58316;48.164;11.538;2022-08-19T10:51:37;24.98;;;13.00;;
70731;SDS011;58316;48.164;11.538;2022-08-19T10:54:22;20.75;;;11.02;;
70731;SDS011;58316;48.164;11.538;2022-08-19T10:56:50;20.10;;;11.50;;
70731;SDS011;58316;48.164;11.538;2022-08-19T10:59:17;21.20;;;11.88;;
70731;SDS011;58316;48.164;11.538;2022-08-19T11:01:44;20.47;;;11.47;;
70731;SDS011;58316;48.164;11.538;2022-08-19T11:04:11;20.83;;;11.68;;
70731;SDS011;58316;48.164;11.538;2022-08-19T11:06:39;20.80;;;11.73;;
70731;SDS011;58316;48.164;11.538;2022-08-19T11:09:05;20.85;;;12.13;;
70731;SDS011;58316;48.164;11.538;2022-08-19T11:11:32;20.38;;;11.77;;
70731;SDS011;58316;48.164;11.538;2022-08-19T11:13:59;18.20;;;10.67;;
70731;SDS011;58316;48.164;11.538;2022-08-19T11:16:25;18.95;;;10.43;;
70731;SDS011;58316;48.164;11.538;2022-08-19T11:18:56;17.55;;;9.40;;
70731;SDS011;58316;48.164;11.538;2022-08-19T11:21:28;14.48;;;8.45;;
70731;SDS011;58316;48.164;11.538;2022-08-19T11:23:57;13.32;;;7.57;;
70731;SDS011;58316;48.164;11.538;2022-08-19T11:26:25;11.27;;;6.23;;
70731;SDS011;58316;48.164;11.538;2022-08-19T11:28:51;12.10;;;6.15;;
70731;SDS011;58316;48.164;11.538;2022-08-19T11:31:20;10.40;;;4.72;;
70731;SDS011;58316;48.164;11.538;2022-08-19T11:33:46;7.82;;;2.63;;
70731;SDS011;58316;48.164;11.538;2022-08-19T11:36:15;6.45;;;2.90;;
70731;SDS011;58316;48.164;11.538;2022-08-19T11:38:43;7.10;;;2.97;;
70731;SDS011;58316;48.164;11.538;2022-08-19T11:41:09;6.72;;;2.65;;
70731;SDS011;58316;48.164;11.538;2022-08-19T11:43:36;6.88;;;3.20;;
70731;SDS011;58316;48.164;11.538;2022-08-19T11:46:05;7.25;;;2.92;;
70731;SDS011;58316;48.164;11.538;2022-08-19T11:48:32;6.35;;;2.45;;
70731;SDS011;58316;48.164;11.538;2022-08-19T11:50:58;6.70;;;2.80;;
70731;SDS011;58316;48.164;11.538;2022-08-19T11:53:24;6.57;;;3.03;;
70731;SDS011;58316;48.164;11.538;2022-08-19T11:55:52;7.32;;;2.40;;
70731;SDS011;58316;48.164;11.538;2022-08-19T11:58:21;6.13;;;2.60;;
70731;SDS011;58316;48.164;11.538;2022-08-19T12:00:47;6.40;;;2.10;;
70731;SDS011;58316;48.164;11.538;2022-08-19T12:03:13;6.03;;;1.90;;
70731;SDS011;58316;48.164;11.538;2022-08-19T12:05:40;5.28;;;1.63;;
70731;SDS011;58316;48.164;11.538;2022-08-19T12:08:06;5.22;;;1.83;;
70731;SDS011;58316;48.164;11.538;2022-08-19T12:10:33;5.28;;;1.67;;
70731;SDS011;58316;48.164;11.538;2022-08-19T12:12:59;4.72;;;1.40;;
70731;SDS011;58316;48.164;11.538;2022-08-19T12:15:26;4.57;;;1.20;;
70731;SDS011;58316;48.164;11.538;2022-08-19T12:17:53;5.22;;;1.60;;
70731;SDS011;58316;48.164;11.538;2022-08-19T12:20:22;5.13;;;1.52;;
70731;SDS011;58316;48.164;11.538;2022-08-19T12:22:48;4.90;;;1.55;;
70731;SDS011;58316;48.164;11.538;2022-08-19T12:25:15;5.30;;;1.48;;
70731;SDS011;58316;48.164;11.538;2022-08-19T12:27:41;5.00;;;1.20;;
70731;SDS011;58316;48.164;11.538;2022-08-19T12:30:08;5.75;;;1.50;;
70731;SDS011;58316;48.164;11.538;2022-08-19T12:32:35;5.13;;;1.20;;
70731;SDS011;58316;48.164;11.538;2022-08-19T12:35:01;5.10;;;1.48;;
70731;SDS011;58316;48.164;11.538;2022-08-19T12:37:27;5.75;;;1.88;;
70731;SDS011;58316;48.164;11.538;2022-08-19T12:39:56;5.20;;;1.40;;
70731;SDS011;58316;48.164;11.538;2022-08-19T12:42:22;4.90;;;1.40;;
70731;SDS011;58316;48.164;11.538;2022-08-19T12:44:49;4.90;;;1.60;;
70731;SDS011;58316;48.164;11.538;2022-08-19T12:47:16;4.65;;;1.15;;
70731;SDS011;58316;48.164;11.538;2022-08-19T12:49:43;5.15;;;1.10;;
70731;SDS011;58316;48.164;11.538;2022-08-19T12:52:10;4.80;;;1.30;;
70731;SDS011;58316;48.164;11.538;2022-08-19T12:54:40;4.43;;;1.20;;
70731;SDS011;58316;48.164;11.538;2022-08-19T12:57:06;5.70;;;1.50;;
70731;SDS011;58316;48.164;11.538;2022-08-19T12:59:37;5.15;;;1.48;;
70731;SDS011;58316;48.164;11.538;2022-08-19T13:02:04;4.70;;;1.00;;
70731;SDS011;58316;48.164;11.538;2022-08-19T13:04:31;5.73;;;1.50;;
70731;SDS011;58316;48.164;11.538;2022-08-19T13:06:59;5.45;;;1.60;;
70731;SDS011;58316;48.164;11.538;2022-08-19T13:09:25;4.90;;;1.65;;
70731;SDS011;58316;48.164;11.538;2022-08-19T13:11:51;4.78;;;1.13;;
70731;SDS011;58316;48.164;11.538;2022-08-19T13:14:17;6.03;;;2.30;;
70731;SDS011;58316;48.164;11.538;2022-08-19T13:16:44;4.70;;;1.60;;
70731;SDS011;58316;48.164;11.538;2022-08-19T13:19:10;4.45;;;1.38;;
70731;SDS011;58316;48.164;11.538;2022-08-19T13:21:37;5.22;;;1.35;;
70731;SDS011;58316;48.164;11.538;2022-08-19T13:24:03;5.97;;;1.40;;
70731;SDS011;58316;48.164;11.538;2022-08-19T13:26:29;4.57;;;1.33;;
70731;SDS011;58316;48.164;11.538;2022-08-19T13:28:55;4.87;;;1.00;;
70731;SDS011;58316;48.164;11.538;2022-08-19T13:31:40;5.03;;;1.50;;
70731;SDS011;58316;48.164;11.538;2022-08-19T13:34:30;4.90;;;1.42;;
70731;SDS011;58316;48.164;11.538;2022-08-19T13:36:57;5.20;;;1.58;;
70731;SDS011;58316;48.164;11.538;2022-08-19T13:39:24;5.07;;;1.67;;
70731;SDS011;58316;48.164;11.538;2022-08-19T13:41:50;5.10;;;1.57;;
70731;SDS011;58316;48.164;11.538;2022-08-19T13:44:16;5.38;;;1.70;;
70731;SDS011;58316;48.164;11.538;2022-08-19T13:46:46;7.35;;;1.90;;
70731;SDS011;58316;48.164;11.538;2022-08-19T13:49:13;5.90;;;2.05;;
70731;SDS011;58316;48.164;11.538;2022-08-19T13:51:39;5.55;;;2.10;;
70731;SDS011;58316;48.164;11.538;2022-08-19T13:54:06;5.70;;;2.20;;
70731;SDS011;58316;48.164;11.538;2022-08-19T13:56:33;7.53;;;2.20;;
70731;SDS011;58316;48.164;11.538;2022-08-19T13:59:00;6.90;;;2.47;;
70731;SDS011;58316;48.164;11.538;2022-08-19T14:01:26;6.57;;;2.80;;
70731;SDS011;58316;48.164;11.538;2022-08-19T14:03:52;6.22;;;2.50;;
70731;SDS011;58316;48.164;11.538;2022-08-19T14:06:19;7.67;;;2.90;;
70731;SDS011;58316;48.164;11.538;2022-08-19T14:08:46;6.93;;;2.65;;
70731;SDS011;58316;48.164;11.538;2022-08-19T14:11:12;7.13;;;2.60;;
70731;SDS011;58316;48.164;11.538;2022-08-19T14:13:38;6.85;;;3.08;;
70731;SDS011;58316;48.164;11.538;2022-08-19T14:16:08;6.05;;;2.17;;
70731;SDS011;58316;48.164;11.538;2022-08-19T14:18:34;5.83;;;2.17;;
70731;SDS011;58316;48.164;11.538;2022-08-19T14:21:00;6.45;;;2.63;;
70731;SDS011;58316;48.164;11.538;2022-08-19T14:23:28;6.65;;;2.63;;
70731;SDS011;58316;48.164;11.538;2022-08-19T14:26:02;6.43;;;2.78;;
70731;SDS011;58316;48.164;11.538;2022-08-19T14:28:28;7.30;;;3.10;;